createdAt,value
2023-01-03T00:04:38.222Z,86.29
2023-01-03T00:09:41.092Z,86.31
2023-01-03T00:14:44.802Z,86.61
2023-01-03T00:19:48.902Z,86.58
2023-01-03T00:24:53.685Z,86.59
2023-01-03T00:29:56.612Z,86.28
2023-01-03T00:35:05.140Z,86.10
2023-01-03T00:40:09.753Z,85.94
2023-01-03T00:45:17.603Z,85.98
2023-01-03T00:50:23.764Z,86.38
2023-01-03T00:55:26.520Z,86.03
2023-01-03T01:00:29.925Z,86.43
2023-01-03T01:05:33.975Z,86.18
2023-01-03T01:10:36.781Z,86.19
2023-01-03T01:15:39.493Z,85.80
2023-01-03T01:20:43.688Z,85.88
2023-01-03T01:25:46.371Z,85.99
2023-01-03T01:30:49.219Z,85.94
2023-01-03T01:35:53.500Z,85.56
2023-01-03T01:40:56.959Z,85.49
2023-01-03T01:46:00.666Z,85.27
2023-01-03T01:51:04.908Z,85.23
2023-01-03T01:56:10.349Z,85.03
2023-01-03T02:01:14.705Z,84.81
2023-01-03T02:06:20.110Z,85.05
2023-01-03T02:11:29.084Z,84.91
2023-01-03T02:16:48.290Z,84.74
2023-01-03T02:22:09.851Z,84.79
2023-01-03T02:27:36.227Z,84.67
2023-01-03T02:32:44.589Z,84.59
2023-01-03T02:37:55.412Z,84.38
2023-01-03T02:43:02.894Z,84.26
2023-01-03T02:48:11.337Z,84.38
2023-01-03T02:53:16.544Z,84.83
2023-01-03T02:58:23.266Z,84.61
2023-01-03T03:03:29.982Z,84.71
2023-01-03T03:08:32.865Z,85.11
2023-01-03T03:13:38.513Z,84.91
2023-01-03T03:18:50.070Z,85.05
2023-01-03T03:24:11.873Z,85.19
2023-01-03T03:29:16.709Z,85.14
2023-01-03T03:34:22.696Z,84.99
2023-01-03T03:39:44.224Z,85.32
2023-01-03T03:45:03.396Z,85.12
2023-01-03T03:50:11.635Z,85.10
2023-01-03T03:55:18.035Z,85.39
2023-01-03T04:00:27.280Z,85.26
2023-01-03T04:05:33.892Z,85.21
2023-01-03T04:10:38.102Z,85.41
2023-01-03T04:15:41.080Z,84.98
2023-01-03T04:20:45.242Z,85.05
2023-01-03T04:25:49.058Z,85.33
2023-01-03T04:30:51.810Z,85.75
2023-01-03T04:35:55.926Z,85.34
2023-01-03T04:41:04.992Z,85.60
2023-01-03T04:46:07.881Z,85.24
2023-01-03T04:51:12.231Z,85.12
2023-01-03T04:56:14.942Z,85.32
2023-01-03T05:01:17.813Z,84.86
2023-01-03T05:06:22.002Z,84.66
2023-01-03T05:11:25.333Z,84.61
2023-01-03T05:16:28.290Z,84.17
2023-01-03T05:21:50.040Z,84.57
2023-01-03T05:26:53.410Z,84.18
2023-01-03T05:31:56.417Z,83.83
2023-01-03T05:37:00.622Z,83.60
2023-01-03T05:42:03.450Z,83.44
2023-01-03T05:47:06.630Z,83.87
2023-01-03T05:52:10.786Z,83.99
2023-01-03T05:57:13.937Z,83.70
2023-01-03T06:02:17.543Z,83.58
2023-01-03T06:07:21.760Z,83.43
2023-01-03T06:12:24.452Z,82.92
2023-01-03T06:17:44.716Z,82.92
2023-01-03T06:22:48.811Z,82.51
2023-01-03T06:27:51.816Z,82.02
2023-01-03T06:32:54.732Z,82.27
2023-01-03T06:37:59.612Z,82.60
2023-01-03T06:43:02.737Z,82.71
2023-01-03T06:48:23.671Z,82.83
2023-01-03T06:53:32.481Z,82.76
2023-01-03T06:58:35.825Z,83.09
2023-01-03T07:03:38.731Z,82.65
2023-01-03T07:08:48.111Z,82.80
2023-01-03T07:14:00.680Z,82.84
2023-01-03T07:19:03.872Z,83.18
2023-01-03T07:24:09.041Z,83.05
2023-01-03T07:29:11.913Z,82.70
2023-01-03T07:34:14.838Z,82.88
2023-01-03T07:39:19.049Z,82.99
2023-01-03T07:44:21.821Z,83.31
2023-01-03T07:49:26.091Z,82.69
2023-01-03T07:54:30.181Z,82.69
2023-01-03T07:59:32.981Z,83.53
2023-01-03T08:04:35.774Z,83.19
2023-01-03T08:09:57.718Z,83.47
2023-01-03T08:15:00.509Z,82.52
2023-01-03T08:20:03.279Z,82.01
2023-01-03T08:25:08.096Z,81.24
2023-01-03T08:30:12.000Z,81.49
2023-01-03T08:35:16.099Z,80.91
2023-01-03T08:40:20.509Z,81.59
2023-01-03T08:45:23.229Z,81.53
2023-01-03T08:50:26.482Z,80.86
2023-01-03T08:55:30.590Z,80.60
2023-01-03T09:00:33.341Z,80.25
2023-01-03T09:05:36.105Z,80.36
2023-01-03T09:10:47.635Z,80.48
2023-01-03T09:15:50.747Z,80.11
2023-01-03T09:20:53.504Z,79.89
2023-01-03T09:25:57.594Z,79.60
2023-01-03T09:31:00.345Z,79.87
2023-01-03T09:36:03.240Z,80.00
2023-01-03T09:41:09.959Z,79.56
2023-01-03T09:46:17.224Z,79.92
2023-01-03T09:51:39.775Z,79.32
2023-01-03T09:57:01.696Z,79.53
2023-01-03T10:02:37.011Z,79.35
2023-01-03T10:08:00.631Z,78.61
2023-01-03T10:13:17.813Z,78.99
2023-01-03T10:18:34.397Z,78.63
2023-01-03T10:23:37.208Z,78.11
2023-01-03T10:28:44.715Z,77.73
2023-01-03T10:33:48.391Z,77.68
2023-01-03T10:39:03.889Z,77.90
2023-01-03T10:44:08.022Z,77.98
2023-01-03T10:49:27.163Z,76.85
2023-01-03T10:54:48.345Z,76.10
2023-01-03T10:59:52.393Z,75.36
2023-01-03T11:05:12.271Z,74.89
2023-01-03T11:10:18.578Z,74.13
2023-01-03T11:15:39.080Z,75.41
2023-01-03T11:20:47.341Z,76.39
2023-01-03T11:25:56.083Z,77.03
2023-01-03T11:31:03.991Z,77.31
2023-01-03T11:36:24.039Z,77.25
2023-01-03T11:41:41.258Z,74.09
2023-01-03T11:46:55.577Z,70.89
2023-01-03T11:52:07.751Z,71.79
2023-01-03T11:57:15.931Z,72.74
2023-01-03T12:02:40.955Z,73.87
2023-01-03T12:07:52.615Z,74.20
2023-01-03T12:13:07.354Z,73.39
2023-01-03T12:18:18.303Z,72.72
2023-01-03T12:23:30.359Z,73.44
2023-01-03T12:28:37.646Z,71.84
2023-01-03T12:33:46.094Z,72.51
2023-01-03T12:38:53.453Z,72.77
2023-01-03T12:44:00.867Z,72.60
2023-01-03T12:49:08.726Z,73.50
2023-01-03T12:54:21.439Z,73.92
2023-01-03T12:59:36.844Z,73.50
2023-01-03T13:04:43.507Z,73.26
2023-01-03T13:09:49.673Z,72.87
2023-01-03T13:14:54.360Z,72.38
2023-01-03T13:20:00.325Z,71.67
2023-01-03T13:25:29.698Z,71.64
2023-01-03T13:30:34.181Z,71.42
2023-01-03T13:35:53.309Z,71.47
2023-01-03T13:46:24.874Z,71.97
2023-01-03T13:51:50.571Z,72.62
2023-01-03T13:57:03.952Z,73.02
2023-01-03T14:02:49.835Z,73.21
2023-01-03T14:08:13.883Z,73.08
2023-01-03T14:13:38.605Z,73.22
2023-01-03T14:18:42.604Z,73.68
2023-01-03T14:23:59.670Z,73.85
2023-01-03T14:29:03.818Z,74.25
2023-01-03T14:34:07.988Z,74.99
2023-01-03T14:39:21.792Z,74.92
2023-01-03T14:44:24.569Z,74.96
2023-01-03T14:49:45.334Z,75.09
2023-01-03T14:54:51.841Z,75.16
2023-01-03T14:59:56.109Z,74.71
2023-01-03T15:04:59.596Z,74.88
2023-01-03T15:10:06.755Z,74.96
2023-01-03T15:15:18.591Z,75.50
2023-01-03T15:20:25.190Z,75.33
2023-01-03T15:25:35.278Z,75.87
2023-01-03T15:30:47.385Z,75.86
2023-01-03T15:35:51.307Z,76.09
2023-01-03T15:40:55.671Z,76.21
2023-01-03T15:46:04.013Z,76.38
2023-01-03T15:51:07.359Z,76.40
2023-01-03T15:56:17.392Z,77.16
2023-01-03T16:01:21.164Z,76.92
2023-01-03T16:06:24.076Z,77.11
2023-01-03T16:11:34.244Z,76.90
2023-01-03T16:16:39.480Z,77.58
2023-01-03T16:21:51.564Z,77.35
2023-01-03T16:27:14.163Z,77.04
2023-01-03T16:32:19.756Z,77.13
2023-01-03T16:37:22.835Z,77.43
2023-01-03T16:42:28.405Z,76.81
2023-01-03T16:47:33.628Z,76.73
2023-01-03T16:52:39.397Z,77.22
2023-01-03T16:57:46.276Z,77.31
2023-01-03T17:02:54.425Z,77.16
2023-01-03T17:08:03.973Z,77.04
2023-01-03T17:13:12.889Z,76.66
2023-01-03T17:18:19.153Z,76.15
2023-01-03T17:23:22.405Z,76.40
2023-01-03T17:28:26.496Z,76.08
2023-01-03T17:33:33.970Z,75.96
2023-01-03T17:38:37.153Z,75.33
2023-01-03T17:43:41.177Z,75.48
2023-01-03T17:49:01.530Z,75.30
2023-01-03T17:54:05.336Z,75.08
2023-01-03T17:59:12.680Z,75.42
2023-01-03T18:04:15.534Z,75.16
2023-01-03T18:09:19.473Z,75.28
2023-01-03T18:14:23.727Z,75.14
2023-01-03T18:19:26.474Z,75.10
2023-01-03T18:24:31.083Z,75.25
2023-01-03T18:29:35.177Z,74.86
2023-01-03T18:34:37.936Z,74.98
2023-01-03T18:39:40.967Z,75.03
2023-01-03T18:44:45.875Z,74.75
2023-01-03T18:49:48.742Z,74.62
2023-01-03T18:54:52.117Z,74.78
2023-01-03T18:59:58.373Z,74.77
2023-01-03T19:05:01.154Z,74.44
2023-01-03T19:10:05.900Z,74.07
2023-01-03T19:15:17.959Z,74.30
2023-01-03T19:20:26.570Z,74.27
2023-01-03T19:25:31.292Z,74.39
2023-01-03T19:30:38.589Z,74.34
2023-01-03T19:35:41.387Z,74.22
2023-01-03T19:40:45.217Z,74.28
2023-01-03T19:45:50.057Z,74.40
2023-01-03T19:50:53.794Z,74.39
2023-01-03T19:55:56.587Z,74.58
2023-01-03T20:01:01.054Z,74.43
2023-01-03T20:06:03.758Z,74.47
2023-01-03T20:11:06.959Z,74.62
2023-01-03T20:16:11.844Z,74.52
2023-01-03T20:21:22.611Z,74.88
2023-01-03T20:26:27.711Z,75.02
2023-01-03T20:31:32.002Z,75.00
2023-01-03T20:36:40.096Z,74.84
2023-01-03T20:41:42.883Z,75.02
2023-01-03T20:46:47.143Z,75.49
2023-01-03T20:51:49.940Z,75.50
2023-01-03T20:56:52.666Z,75.48
2023-01-03T21:01:57.226Z,75.72
2023-01-03T21:07:00.352Z,75.25
2023-01-03T21:12:04.680Z,75.42
2023-01-03T21:17:11.596Z,75.54
2023-01-03T21:22:19.994Z,75.80
2023-01-03T21:27:22.728Z,75.81
2023-01-03T21:32:26.924Z,75.61
2023-01-03T21:37:29.800Z,75.45
2023-01-03T21:42:50.216Z,75.64
2023-01-03T21:47:54.297Z,75.99
2023-01-03T21:52:57.187Z,75.85
2023-01-03T21:58:00.386Z,75.76
2023-01-03T22:03:21.785Z,75.56
2023-01-03T22:08:24.583Z,75.89
2023-01-03T22:13:27.314Z,75.69
2023-01-03T22:18:31.585Z,75.62
2023-01-03T22:23:35.020Z,75.56
2023-01-03T22:28:38.856Z,76.17
2023-01-03T22:33:43.132Z,75.86
2023-01-03T22:38:45.952Z,75.84
2023-01-03T22:43:48.658Z,75.99
2023-01-03T22:48:53.187Z,76.06
2023-01-03T22:53:56.983Z,76.39
2023-01-03T22:58:59.756Z,76.14
2023-01-03T23:04:06.595Z,76.83
2023-01-03T23:09:09.571Z,76.57
2023-01-03T23:14:14.803Z,76.48
2023-01-03T23:19:20.524Z,76.69
2023-01-03T23:24:25.091Z,76.92
2023-01-03T23:29:27.973Z,76.63
2023-01-03T23:34:36.206Z,76.75
2023-01-03T23:39:39.747Z,76.53
2023-01-03T23:44:42.547Z,76.79
2023-01-03T23:49:46.764Z,76.87
2023-01-03T23:54:53.359Z,76.80
2023-01-03T23:59:58.976Z,76.91
